Terminal Aerodrome Forecast
Issued by NWS

Home | Current Version | Previous Version | Text Only | Print | Product List | Glossary On
Versions: 1 2 3 4 5 6 7 8 9 10 11 12
000
FTUS46 KSGX 161700
TAFSNA
TAF
KSNA 161720Z 1618/1718 VRB05KT P6SM FEW100
     FM161900 22009KT P6SM SCT100
     FM170200 VRB04KT P6SM FEW100=

USA.gov is the U.S. government's official web portal to all federal, state and local government web resources and services.